createdAt,value
2023-05-28T00:01:37.021Z,3.30
2023-05-28T00:04:08.918Z,2.83
2023-05-28T00:06:38.267Z,3.47
2023-05-28T00:09:06.546Z,2.80
2023-05-28T00:11:34.952Z,3.30
2023-05-28T00:14:04.546Z,3.30
2023-05-28T00:16:42.161Z,3.00
2023-05-28T00:19:12.976Z,2.87
2023-05-28T00:21:42.559Z,3.43
2023-05-28T00:24:18.476Z,3.00
2023-05-28T00:26:55.951Z,2.70
2023-05-28T00:29:35.061Z,3.47
2023-05-28T00:32:08.352Z,2.87
2023-05-28T00:34:46.180Z,3.40
2023-05-28T00:37:19.684Z,3.40
2023-05-28T00:39:53.419Z,3.13
2023-05-28T00:42:23.315Z,3.70
2023-05-28T00:44:52.035Z,3.90
2023-05-28T00:47:28.519Z,3.53
2023-05-28T00:50:07.604Z,4.23
2023-05-28T00:52:37.956Z,4.20
2023-05-28T00:55:16.283Z,3.70
2023-05-28T00:57:47.212Z,3.87
2023-05-28T01:00:22.440Z,3.93
2023-05-28T01:03:00.817Z,4.20
2023-05-28T01:05:33.194Z,4.10
2023-05-28T01:08:03.491Z,4.07
2023-05-28T01:10:35.737Z,3.67
2023-05-28T01:13:06.989Z,4.07
2023-05-28T01:15:38.400Z,3.97
2023-05-28T01:18:14.650Z,4.17
2023-05-28T01:20:50.898Z,4.10
2023-05-28T01:23:24.160Z,4.47
2023-05-28T01:26:11.689Z,4.07
2023-05-28T01:28:42.771Z,3.60
2023-05-28T01:31:13.535Z,4.30
2023-05-28T01:33:51.681Z,3.67
2023-05-28T01:36:24.562Z,4.50
2023-05-28T01:39:01.056Z,4.00
2023-05-28T01:41:38.357Z,3.63
2023-05-28T01:44:08.726Z,3.50
2023-05-28T01:46:39.746Z,3.70
2023-05-28T01:49:13.971Z,3.53
2023-05-28T01:51:43.163Z,3.93
2023-05-28T01:54:17.415Z,4.33
2023-05-28T01:56:50.542Z,4.50
2023-05-28T01:59:28.847Z,3.80
2023-05-28T02:01:57.286Z,3.67
2023-05-28T02:04:27.279Z,3.87
2023-05-28T02:06:56.897Z,3.60
2023-05-28T02:09:28.711Z,3.37
2023-05-28T02:12:00.482Z,4.10
2023-05-28T02:14:30.591Z,3.77
2023-05-28T02:17:01.399Z,3.90
2023-05-28T02:19:33.786Z,4.00
2023-05-28T02:22:04.695Z,3.27
2023-05-28T02:24:40.160Z,3.30
2023-05-28T02:27:15.875Z,3.10
2023-05-28T02:29:53.236Z,3.80
2023-05-28T02:32:26.819Z,4.07
2023-05-28T02:35:00.960Z,3.30
2023-05-28T02:37:36.198Z,3.33
2023-05-28T02:40:06.857Z,3.30
2023-05-28T02:42:37.799Z,3.30
2023-05-28T02:45:08.068Z,3.90
2023-05-28T02:47:36.360Z,3.80
2023-05-28T02:50:07.898Z,3.70
2023-05-28T02:52:59.820Z,4.00
2023-05-28T02:55:37.829Z,3.83
2023-05-28T02:58:12.315Z,4.47
2023-05-28T03:00:43.636Z,4.13
2023-05-28T03:03:14.808Z,3.87
2023-05-28T03:05:47.636Z,3.70
2023-05-28T03:08:17.737Z,3.53
2023-05-28T03:10:48.839Z,4.00
2023-05-28T03:13:20.957Z,3.73
2023-05-28T03:15:52.393Z,4.27
2023-05-28T03:18:23.360Z,3.67
2023-05-28T03:20:57.482Z,4.10
2023-05-28T03:23:33.608Z,3.70
2023-05-28T03:26:29.334Z,3.90
2023-05-28T03:29:04.623Z,4.37
2023-05-28T03:32:00.054Z,4.30
2023-05-28T03:34:29.982Z,3.50
2023-05-28T03:37:01.368Z,3.90
2023-05-28T03:39:35.985Z,4.17
2023-05-28T03:42:10.721Z,4.50
2023-05-28T03:44:50.763Z,3.87
2023-05-28T03:47:20.253Z,3.63
2023-05-28T03:49:49.644Z,3.80
2023-05-28T03:52:23.790Z,4.30
2023-05-28T03:54:57.185Z,3.67
2023-05-28T03:57:36.679Z,3.90
2023-05-28T04:00:13.744Z,3.80
2023-05-28T04:02:56.752Z,4.00
2023-05-28T04:05:29.435Z,3.70
2023-05-28T04:08:00.653Z,3.97
2023-05-28T04:10:32.482Z,3.80
2023-05-28T04:13:05.686Z,3.60
2023-05-28T04:15:53.067Z,4.27
2023-05-28T04:18:31.233Z,4.10
2023-05-28T04:21:08.352Z,3.60
2023-05-28T04:23:45.201Z,4.10
2023-05-28T04:26:24.728Z,3.40
2023-05-28T04:29:03.012Z,4.00
2023-05-28T04:31:43.012Z,3.73
2023-05-28T04:34:11.873Z,3.53
2023-05-28T04:36:44.180Z,3.70
2023-05-28T04:39:12.486Z,3.70
2023-05-28T04:41:42.056Z,3.20
2023-05-28T04:44:10.320Z,3.50
2023-05-28T04:46:44.671Z,3.80
2023-05-28T04:49:13.591Z,3.40
2023-05-28T04:51:50.149Z,3.80
2023-05-28T04:54:20.768Z,4.07
2023-05-28T04:56:53.260Z,3.20
2023-05-28T04:59:22.732Z,4.70
2023-05-28T05:02:10.357Z,3.80
2023-05-28T05:04:48.253Z,3.70
2023-05-28T05:07:21.971Z,3.20
2023-05-28T05:09:52.879Z,3.73
2023-05-28T05:12:32.402Z,3.80
2023-05-28T05:15:01.991Z,4.07
2023-05-28T05:17:34.874Z,3.63
2023-05-28T05:20:06.313Z,4.60
2023-05-28T05:22:39.896Z,3.33
2023-05-28T05:25:14.434Z,3.87
2023-05-28T05:27:48.876Z,4.17
2023-05-28T05:30:20.699Z,3.37
2023-05-28T05:33:10.976Z,3.77
2023-05-28T05:36:13.229Z,3.83
2023-05-28T05:39:07.837Z,3.97
2023-05-28T05:42:07.610Z,3.23
2023-05-28T05:44:57.900Z,3.50
2023-05-28T05:47:28.580Z,4.30
2023-05-28T05:50:18.268Z,3.60
2023-05-28T05:52:47.416Z,3.60
2023-05-28T05:55:19.184Z,3.87
2023-05-28T05:57:47.987Z,3.63
2023-05-28T06:00:19.109Z,3.43
2023-05-28T06:02:51.531Z,3.27
2023-05-28T06:05:42.107Z,3.80
2023-05-28T06:08:39.436Z,4.43
2023-05-28T06:11:49.759Z,4.17
2023-05-28T06:14:22.577Z,4.40
2023-05-28T06:16:51.429Z,3.87
2023-05-28T06:19:22.315Z,3.40
2023-05-28T06:21:58.709Z,3.60
2023-05-28T06:24:34.453Z,4.30
2023-05-28T06:27:04.465Z,3.67
2023-05-28T06:29:42.260Z,3.63
2023-05-28T06:32:14.447Z,3.83
2023-05-28T06:34:44.323Z,3.87
2023-05-28T06:37:25.821Z,4.20
2023-05-28T06:39:54.917Z,3.67
2023-05-28T06:42:27.580Z,4.50
2023-05-28T06:45:17.013Z,3.47
2023-05-28T06:47:49.028Z,4.00
2023-05-28T06:50:20.964Z,4.40
2023-05-28T06:52:56.456Z,4.20
2023-05-28T06:55:27.704Z,4.03
2023-05-28T06:58:22.176Z,4.80
2023-05-28T07:01:20.081Z,4.60
2023-05-28T07:04:11.439Z,3.83
2023-05-28T07:06:45.046Z,3.87
2023-05-28T07:09:25.110Z,5.10
2023-05-28T07:11:56.402Z,4.20
2023-05-28T07:14:26.589Z,3.80
2023-05-28T07:16:55.232Z,4.17
2023-05-28T07:19:28.153Z,4.83
2023-05-28T07:22:03.420Z,3.80
2023-05-28T07:24:34.750Z,4.00
2023-05-28T07:27:05.399Z,4.67
2023-05-28T07:29:36.512Z,4.80
2023-05-28T07:32:06.676Z,4.27
2023-05-28T07:34:51.063Z,3.67
2023-05-28T07:37:21.932Z,4.70
2023-05-28T07:39:53.811Z,3.63
2023-05-28T07:42:22.183Z,4.57
2023-05-28T07:45:08.554Z,4.23
2023-05-28T07:47:38.907Z,4.00
2023-05-28T07:50:28.977Z,5.30
2023-05-28T07:53:18.719Z,4.60
2023-05-28T07:55:55.373Z,4.40
2023-05-28T07:58:26.463Z,4.40
2023-05-28T08:00:58.068Z,4.80
2023-05-28T08:03:30.527Z,4.53
2023-05-28T08:06:03.080Z,4.37
2023-05-28T08:08:37.308Z,4.03
2023-05-28T08:11:21.860Z,4.70
2023-05-28T08:13:54.066Z,4.30
2023-05-28T08:16:27.984Z,4.30
2023-05-28T08:19:19.860Z,5.40
2023-05-28T08:21:51.962Z,4.60
2023-05-28T08:24:24.231Z,4.60
2023-05-28T08:27:00.260Z,4.53
2023-05-28T08:29:38.666Z,4.90
2023-05-28T08:32:09.960Z,5.00
2023-05-28T08:34:42.572Z,4.50
2023-05-28T08:37:13.863Z,4.30
2023-05-28T08:40:14.058Z,4.50
2023-05-28T08:42:46.269Z,5.60
2023-05-28T08:45:20.062Z,5.00
2023-05-28T08:47:53.531Z,4.67
2023-05-28T08:50:31.179Z,5.57
2023-05-28T08:53:23.030Z,5.53
2023-05-28T08:55:52.891Z,5.67
2023-05-28T08:58:26.560Z,5.73
2023-05-28T09:00:59.085Z,4.50
2023-05-28T09:03:49.754Z,5.83
2023-05-28T09:06:48.531Z,4.80
2023-05-28T09:09:30.636Z,5.23
2023-05-28T09:12:07.574Z,6.07
2023-05-28T09:14:55.688Z,5.30
2023-05-28T09:17:42.850Z,4.80
2023-05-28T09:20:20.675Z,4.80
2023-05-28T09:23:02.753Z,5.10
2023-05-28T09:26:04.947Z,4.67
2023-05-28T09:28:44.772Z,4.70
2023-05-28T09:31:26.309Z,5.43
2023-05-28T09:33:56.964Z,4.13
2023-05-28T09:36:26.945Z,6.13
2023-05-28T09:38:56.267Z,5.47
2023-05-28T09:41:35.054Z,4.87
2023-05-28T09:44:05.902Z,4.57
2023-05-28T09:46:45.134Z,4.63
2023-05-28T09:49:14.655Z,5.40
2023-05-28T09:51:46.334Z,4.70
2023-05-28T09:54:15.956Z,4.70
2023-05-28T09:56:47.372Z,5.20
2023-05-28T09:59:21.994Z,4.97
2023-05-28T10:02:01.497Z,5.40
2023-05-28T10:04:36.431Z,4.90
2023-05-28T10:07:16.797Z,5.20
2023-05-28T10:09:49.037Z,5.90
2023-05-28T10:12:27.337Z,6.30
2023-05-28T10:14:56.669Z,5.50
2023-05-28T10:17:27.312Z,5.30
2023-05-28T10:19:56.946Z,5.00
2023-05-28T10:22:33.565Z,5.77
2023-05-28T10:25:10.261Z,4.83
2023-05-28T10:27:53.524Z,5.10
2023-05-28T10:30:36.812Z,5.00
2023-05-28T10:33:16.095Z,5.20
2023-05-28T10:35:56.272Z,4.50
2023-05-28T10:38:26.211Z,6.07
2023-05-28T10:41:06.019Z,5.70
2023-05-28T10:43:48.912Z,5.00
2023-05-28T10:46:24.350Z,4.97
2023-05-28T10:49:17.941Z,5.10
2023-05-28T10:52:03.797Z,5.00
2023-05-28T10:54:48.535Z,4.60
2023-05-28T10:57:30.822Z,4.60
2023-05-28T11:00:05.005Z,5.47
2023-05-28T11:02:38.833Z,5.40
2023-05-28T11:05:10.926Z,5.10
2023-05-28T11:07:41.140Z,5.33
2023-05-28T11:10:11.754Z,4.63
2023-05-28T11:12:41.463Z,4.80
2023-05-28T11:15:19.768Z,4.73
2023-05-28T11:17:51.905Z,5.90
2023-05-28T11:20:29.536Z,5.30
2023-05-28T11:23:00.399Z,5.50
2023-05-28T11:25:40.151Z,5.13
2023-05-28T11:28:11.638Z,5.33
2023-05-28T11:30:43.496Z,4.90
2023-05-28T11:33:12.636Z,5.10
2023-05-28T11:35:51.738Z,4.90
2023-05-28T11:38:21.397Z,4.73
2023-05-28T11:40:53.986Z,4.57
2023-05-28T11:43:30.247Z,4.80
2023-05-28T11:46:08.540Z,5.87
2023-05-28T11:48:40.352Z,4.83
2023-05-28T11:51:23.921Z,4.93
2023-05-28T11:53:57.620Z,5.43
2023-05-28T11:56:30.302Z,5.43
2023-05-28T11:59:06.480Z,5.80
2023-05-28T12:01:38.376Z,4.70
2023-05-28T12:04:07.725Z,4.70
2023-05-28T12:06:53.557Z,5.67
2023-05-28T12:09:24.044Z,5.10
2023-05-28T12:12:06.608Z,4.93
2023-05-28T12:14:42.455Z,4.90
2023-05-28T12:17:13.588Z,4.30
2023-05-28T12:19:43.688Z,5.07
2023-05-28T12:22:20.472Z,4.53
2023-05-28T12:24:51.043Z,5.80
2023-05-28T12:27:22.367Z,4.43
2023-05-28T12:29:53.162Z,4.67
2023-05-28T12:32:29.608Z,4.50
2023-05-28T12:35:09.396Z,4.60
2023-05-28T12:37:54.881Z,4.47
2023-05-28T12:40:25.247Z,4.50
2023-05-28T12:42:54.741Z,4.70
2023-05-28T12:45:25.214Z,4.00
2023-05-28T12:47:58.993Z,4.43
2023-05-28T12:50:35.344Z,4.87
2023-05-28T12:53:08.866Z,4.73
2023-05-28T12:55:40.189Z,4.23
2023-05-28T12:58:14.697Z,4.50
2023-05-28T13:00:53.168Z,4.53
2023-05-28T13:03:27.062Z,4.77
2023-05-28T13:06:04.351Z,4.70
2023-05-28T13:08:36.781Z,4.33
2023-05-28T13:11:05.967Z,4.60
2023-05-28T13:13:43.607Z,4.80
2023-05-28T13:16:14.824Z,4.80
2023-05-28T13:18:47.345Z,4.37
2023-05-28T13:21:24.227Z,5.20
2023-05-28T13:24:01.542Z,4.73
2023-05-28T13:26:32.642Z,4.83
2023-05-28T13:29:06.609Z,4.93
2023-05-28T13:31:36.559Z,4.83
2023-05-28T13:34:18.804Z,5.13
2023-05-28T13:36:55.793Z,4.20
2023-05-28T13:39:30.102Z,4.70
2023-05-28T13:42:02.587Z,4.50
2023-05-28T13:44:31.383Z,5.00
2023-05-28T13:47:07.017Z,4.87
2023-05-28T13:49:38.329Z,4.87
2023-05-28T13:52:06.545Z,4.87
2023-05-28T13:54:42.751Z,4.70
2023-05-28T13:57:23.340Z,4.30
2023-05-28T13:59:54.332Z,4.60
2023-05-28T14:02:27.555Z,5.27
2023-05-28T14:04:58.792Z,4.50
2023-05-28T14:07:30.566Z,5.13
2023-05-28T14:10:10.421Z,4.93
2023-05-28T14:12:44.848Z,4.30
2023-05-28T14:15:15.505Z,4.37
2023-05-28T14:17:44.549Z,4.70
2023-05-28T14:20:22.493Z,5.13
2023-05-28T14:22:52.380Z,4.50
2023-05-28T14:25:23.690Z,4.63
2023-05-28T14:28:07.423Z,4.93
2023-05-28T14:30:48.577Z,4.47
2023-05-28T14:33:21.244Z,4.67
2023-05-28T14:36:00.933Z,5.00
2023-05-28T14:38:38.823Z,4.20
2023-05-28T14:41:20.146Z,4.83
2023-05-28T14:43:49.164Z,4.47
2023-05-28T14:46:23.294Z,4.97
2023-05-28T14:48:52.745Z,4.10
2023-05-28T14:51:29.404Z,4.70
2023-05-28T14:54:00.565Z,4.53
2023-05-28T14:56:47.357Z,4.83
2023-05-28T14:59:16.969Z,4.33
2023-05-28T15:01:51.084Z,5.13
2023-05-28T15:04:19.445Z,4.97
2023-05-28T15:06:49.752Z,4.70
2023-05-28T15:09:20.048Z,4.10
2023-05-28T15:12:00.433Z,4.40
2023-05-28T15:14:31.962Z,5.63
2023-05-28T15:17:02.414Z,4.40
2023-05-28T15:19:31.532Z,4.30
2023-05-28T15:22:00.154Z,4.27
2023-05-28T15:24:37.473Z,4.50
2023-05-28T15:27:16.405Z,4.53
2023-05-28T15:29:54.012Z,4.70
2023-05-28T15:32:31.387Z,4.27
2023-05-28T15:35:10.618Z,4.00
2023-05-28T15:37:49.374Z,4.10
2023-05-28T15:40:20.141Z,4.40
2023-05-28T15:42:59.118Z,4.70
2023-05-28T15:45:35.807Z,4.33
2023-05-28T15:50:56.166Z,4.53
2023-05-28T15:53:33.559Z,4.40
2023-05-28T15:56:07.989Z,4.77
2023-05-28T15:58:37.957Z,4.80
2023-05-28T16:01:08.483Z,4.20
2023-05-28T16:03:41.676Z,4.30
2023-05-28T16:06:13.826Z,5.40
2023-05-28T16:08:50.205Z,4.50
2023-05-28T16:11:30.837Z,4.80
2023-05-28T16:14:19.822Z,4.70
2023-05-28T16:16:55.402Z,5.03
2023-05-28T16:19:27.947Z,4.43
2023-05-28T16:22:01.367Z,5.10
2023-05-28T16:24:33.249Z,4.40
2023-05-28T16:27:13.532Z,4.40
2023-05-28T16:29:58.911Z,4.37
2023-05-28T16:32:45.749Z,4.63
2023-05-28T16:35:20.444Z,4.83
2023-05-28T16:37:52.317Z,4.63
2023-05-28T16:40:21.816Z,5.60
2023-05-28T16:42:59.337Z,4.70
2023-05-28T16:45:30.284Z,5.60
2023-05-28T16:48:07.364Z,4.30
2023-05-28T16:50:36.597Z,5.10
2023-05-28T16:53:09.760Z,4.70
2023-05-28T16:55:48.533Z,5.30
2023-05-28T16:58:21.591Z,4.63
2023-05-28T17:00:59.183Z,5.20
2023-05-28T17:03:32.405Z,4.37
2023-05-28T17:06:05.162Z,4.73
2023-05-28T17:08:33.913Z,4.50
2023-05-28T17:11:03.005Z,3.93
2023-05-28T17:13:44.056Z,4.63
2023-05-28T17:16:19.957Z,4.10
2023-05-28T17:18:54.431Z,5.30
2023-05-28T17:21:22.694Z,4.20
2023-05-28T17:23:54.086Z,5.50
2023-05-28T17:26:23.594Z,4.40
2023-05-28T17:28:56.894Z,4.53
2023-05-28T17:31:40.923Z,4.60
2023-05-28T17:34:12.795Z,4.33
2023-05-28T17:36:43.485Z,4.77
2023-05-28T17:39:19.879Z,5.07
2023-05-28T17:41:48.579Z,4.50
2023-05-28T17:44:23.054Z,5.00
2023-05-28T17:46:57.307Z,4.63
2023-05-28T17:49:26.821Z,5.27
2023-05-28T17:51:55.800Z,4.80
2023-05-28T17:54:26.127Z,5.83
2023-05-28T17:56:54.502Z,4.80
2023-05-28T17:59:24.852Z,5.50
2023-05-28T18:02:02.346Z,5.43
2023-05-28T18:04:32.011Z,5.33
2023-05-28T18:07:03.686Z,5.20
2023-05-28T18:09:35.835Z,5.20
2023-05-28T18:12:07.863Z,5.40
2023-05-28T18:14:37.638Z,5.23
2023-05-28T18:17:10.632Z,5.60
2023-05-28T18:19:43.407Z,5.63
2023-05-28T18:22:16.904Z,5.60
2023-05-28T18:24:46.483Z,5.93
2023-05-28T18:27:16.264Z,6.03
2023-05-28T18:29:48.656Z,5.67
2023-05-28T18:32:21.602Z,6.07
2023-05-28T18:34:50.906Z,6.47
2023-05-28T18:37:20.699Z,6.30
2023-05-28T18:39:54.381Z,6.50
2023-05-28T18:42:32.166Z,5.70
2023-05-28T18:45:04.506Z,6.43
2023-05-28T18:47:37.858Z,6.73
2023-05-28T18:50:14.788Z,6.10
2023-05-28T18:52:45.788Z,6.37
2023-05-28T18:55:25.107Z,6.17
2023-05-28T18:57:56.953Z,6.60
2023-05-28T19:00:28.815Z,6.73
2023-05-28T19:03:00.417Z,6.60
2023-05-28T19:05:29.283Z,7.33
2023-05-28T19:07:58.800Z,7.53
2023-05-28T19:10:28.098Z,7.13
2023-05-28T19:13:00.138Z,6.40
2023-05-28T19:15:37.413Z,6.30
2023-05-28T19:18:12.673Z,7.53
2023-05-28T19:20:42.377Z,6.87
2023-05-28T19:23:13.704Z,6.53
2023-05-28T19:25:56.542Z,6.30
2023-05-28T19:28:28.509Z,6.67
2023-05-28T19:31:01.926Z,6.33
2023-05-28T19:33:39.833Z,6.23
2023-05-28T19:36:18.751Z,6.20
2023-05-28T19:38:54.886Z,6.97
2023-05-28T19:41:25.282Z,6.13
2023-05-28T19:44:03.174Z,7.00
2023-05-28T19:46:34.284Z,5.57
2023-05-28T19:49:15.393Z,5.93
2023-05-28T19:51:46.184Z,6.20
2023-05-28T19:54:19.468Z,6.67
2023-05-28T19:56:50.013Z,6.60
2023-05-28T19:59:24.919Z,6.30
2023-05-28T20:01:53.867Z,6.47
2023-05-28T20:04:26.292Z,6.10
2023-05-28T20:06:59.067Z,6.77
2023-05-28T20:09:29.067Z,5.70
2023-05-28T20:12:00.443Z,5.80
2023-05-28T20:14:29.822Z,6.07
2023-05-28T20:17:04.648Z,5.40
2023-05-28T20:19:48.255Z,5.37
2023-05-28T20:22:21.285Z,4.83
2023-05-28T20:24:50.028Z,5.40
2023-05-28T20:27:28.664Z,4.57
2023-05-28T20:30:02.995Z,4.83
2023-05-28T20:32:36.449Z,5.00
2023-05-28T20:35:11.264Z,5.13
2023-05-28T20:37:42.613Z,5.33
2023-05-28T20:40:24.828Z,5.40
2023-05-28T20:42:55.889Z,5.20
2023-05-28T20:45:25.999Z,5.43
2023-05-28T20:47:58.521Z,4.83
2023-05-28T20:50:37.193Z,4.80
2023-05-28T20:53:10.429Z,4.80
2023-05-28T20:55:40.427Z,5.23
2023-05-28T21:00:38.423Z,4.97
2023-05-28T21:03:06.848Z,5.57
2023-05-28T21:05:42.904Z,5.23
2023-05-28T21:08:11.777Z,5.07
2023-05-28T21:10:44.892Z,5.13
2023-05-28T21:13:18.628Z,4.43
2023-05-28T21:16:02.246Z,4.77
2023-05-28T21:18:33.934Z,6.20
2023-05-28T21:21:07.412Z,4.87
2023-05-28T21:23:36.960Z,5.60
2023-05-28T21:26:06.410Z,4.97
2023-05-28T21:28:38.660Z,4.57
2023-05-28T21:31:18.716Z,4.93
2023-05-28T21:33:56.085Z,5.03
2023-05-28T21:36:30.974Z,5.60
2023-05-28T21:39:08.185Z,5.40
2023-05-28T21:41:37.533Z,5.43
2023-05-28T21:44:06.886Z,4.63
2023-05-28T21:46:40.200Z,5.23
2023-05-28T21:49:11.312Z,5.40
2023-05-28T21:51:57.120Z,4.77
2023-05-28T21:54:28.686Z,4.60
2023-05-28T21:56:58.096Z,4.00
2023-05-28T21:59:39.904Z,4.47
2023-05-28T22:02:11.692Z,5.00
2023-05-28T22:04:50.828Z,5.30
2023-05-28T22:07:36.359Z,4.60
2023-05-28T22:10:09.286Z,4.27
2023-05-28T22:12:47.228Z,4.27
2023-05-28T22:15:18.459Z,5.30
2023-05-28T22:17:48.079Z,4.60
2023-05-28T22:20:21.375Z,5.10
2023-05-28T22:22:57.953Z,5.77
2023-05-28T22:25:37.069Z,5.73
2023-05-28T22:28:06.043Z,5.60
2023-05-28T22:30:38.327Z,5.80
2023-05-28T22:33:11.225Z,6.80
2023-05-28T22:35:42.198Z,5.97
2023-05-28T22:38:18.686Z,5.70
2023-05-28T22:40:50.620Z,5.17
2023-05-28T22:43:21.289Z,6.13
2023-05-28T22:45:51.983Z,6.10
2023-05-28T22:48:21.483Z,5.37
2023-05-28T22:50:50.640Z,5.50
2023-05-28T22:53:22.706Z,5.40
2023-05-28T22:55:52.054Z,5.37
2023-05-28T22:58:23.343Z,4.83
2023-05-28T23:01:02.095Z,5.53
2023-05-28T23:03:43.553Z,6.07
2023-05-28T23:06:12.680Z,5.17
2023-05-28T23:08:50.362Z,4.97
2023-05-28T23:11:19.751Z,4.30
2023-05-28T23:13:51.104Z,4.83
2023-05-28T23:16:30.564Z,4.50
2023-05-28T23:19:01.913Z,4.73
2023-05-28T23:21:34.934Z,4.83
2023-05-28T23:24:16.269Z,5.10
2023-05-28T23:26:44.584Z,5.03
2023-05-28T23:29:16.500Z,5.30
2023-05-28T23:31:48.995Z,5.27
2023-05-28T23:34:19.380Z,6.30
2023-05-28T23:36:59.617Z,6.87
2023-05-28T23:39:42.012Z,6.10
2023-05-28T23:42:13.146Z,7.40
2023-05-28T23:44:43.885Z,6.07
2023-05-28T23:47:14.693Z,6.30
2023-05-28T23:49:46.379Z,6.10
2023-05-28T23:52:24.241Z,5.93
2023-05-28T23:54:54.736Z,6.20
2023-05-28T23:57:25.003Z,6.33
